Time;durP1;ratioP1;P1;durP2;ratioP2;P2;SDS_P1;SDS_P2;PMS_P1;PMS_P2;Temp;Humidity;BMP_temperature;BMP_pressure;BME280_temperature;BME280_humidity;BME280_pressure;Samples;Min_cycle;Max_cycle;Signal;HPM_P1;HPM_P2
2022/08/09 00:00:47;;;;;;;4.20;2.80;;;16.90;99.90;;;;;;5053443;28;20170;-83
2022/08/09 00:03:13;;;;;;;6.27;2.70;;;17.00;99.90;;;;;;5052408;28;20179;-84
2022/08/09 00:05:38;;;;;;;3.47;3.00;;;16.90;99.90;;;;;;5047326;28;20202;-84
2022/08/09 00:08:06;;;;;;;4.20;2.90;;;16.80;99.90;;;;;;5059757;22;20182;-85
2022/08/09 00:10:31;;;;;;;3.33;2.60;;;16.90;99.90;;;;;;5032676;28;20262;-84
2022/08/09 00:12:57;;;;;;;4.73;2.90;;;16.80;99.90;;;;;;5032120;28;20667;-85
2022/08/09 00:15:23;;;;;;;8.40;2.90;;;16.90;99.90;;;;;;5032195;28;20193;-85
2022/08/09 00:17:48;;;;;;;6.97;3.07;;;16.80;99.90;;;;;;5033027;28;20217;-85
2022/08/09 00:20:14;;;;;;;8.07;3.13;;;16.80;99.90;;;;;;5032137;28;20219;-85
2022/08/09 00:22:40;;;;;;;6.43;3.00;;;16.70;99.90;;;;;;5032593;28;20183;-85
2022/08/09 00:25:06;;;;;;;4.80;3.03;;;16.70;99.90;;;;;;5031699;28;20193;-85
2022/08/09 00:27:32;;;;;;;7.40;3.20;;;16.60;99.90;;;;;;5031779;28;20162;-84
2022/08/09 00:29:57;;;;;;;6.40;2.70;;;16.60;99.90;;;;;;5031835;28;20277;-84
2022/08/09 00:32:23;;;;;;;9.93;3.23;;;16.50;99.90;;;;;;5033072;28;20179;-84
2022/08/09 00:34:49;;;;;;;4.77;3.13;;;16.60;99.90;;;;;;5031329;28;20189;-84
2022/08/09 00:37:14;;;;;;;5.43;3.30;;;16.70;99.90;;;;;;5031362;28;20198;-84
2022/08/09 00:39:40;;;;;;;5.90;3.40;;;16.70;99.90;;;;;;5031527;28;20542;-85
2022/08/09 00:42:06;;;;;;;7.80;3.20;;;16.50;99.90;;;;;;5032515;28;20170;-84
2022/08/09 00:44:31;;;;;;;3.63;3.20;;;16.50;99.90;;;;;;5031151;28;20277;-84
2022/08/09 00:46:57;;;;;;;4.97;3.50;;;16.60;99.90;;;;;;5031429;28;20178;-84
2022/08/09 00:49:23;;;;;;;7.77;3.23;;;16.70;99.90;;;;;;5031345;28;20178;-84
2022/08/09 00:51:49;;;;;;;9.63;3.60;;;16.60;99.90;;;;;;5032265;28;20213;-84
2022/08/09 00:54:15;;;;;;;6.73;3.40;;;16.60;99.90;;;;;;5030809;28;20185;-85
2022/08/09 00:56:41;;;;;;;6.13;3.37;;;16.50;99.90;;;;;;5030803;28;20226;-84
2022/08/09 00:59:06;;;;;;;5.90;3.47;;;16.40;99.90;;;;;;5031140;28;20179;-85
2022/08/09 01:01:39;;;;;;;6.70;3.53;;;16.40;99.90;;;;;;5031848;28;20586;-85
2022/08/09 01:04:50;;;;;;;4.50;3.47;;;16.30;99.90;;;;;;5031076;28;20692;-84
2022/08/09 01:07:26;;;;;;;6.57;3.90;;;16.30;99.90;;;;;;5031026;28;20170;-84
2022/08/09 01:10:13;;;;;;;5.93;3.70;;;16.40;99.90;;;;;;5031129;28;20200;-84
2022/08/09 01:12:53;;;;;;;5.47;3.73;;;16.20;99.90;;;;;;5031957;28;20175;-84
2022/08/09 01:15:24;;;;;;;5.07;4.03;;;16.30;99.90;;;;;;5030433;28;20256;-85
2022/08/09 01:18:07;;;;;;;4.37;3.30;;;16.30;99.90;;;;;;5030896;28;20598;-84
2022/08/09 01:20:35;;;;;;;6.03;3.47;;;16.40;99.90;;;;;;5033302;28;20711;-84
2022/08/09 01:23:13;;;;;;;6.37;3.40;;;16.40;99.90;;;;;;5032101;28;20170;-84
2022/08/09 01:26:15;;;;;;;6.17;3.70;;;16.40;99.90;;;;;;5035810;28;20188;-85
2022/08/09 01:28:44;;;;;;;7.67;3.77;;;16.40;99.90;;;;;;5035759;28;20173;-84
2022/08/09 01:31:16;;;;;;;4.60;3.43;;;16.30;99.90;;;;;;5038838;28;20197;-85
2022/08/09 01:33:45;;;;;;;8.30;4.13;;;16.20;99.90;;;;;;5040067;28;20169;-84
2022/08/09 01:36:13;;;;;;;5.83;4.07;;;16.20;99.90;;;;;;5035903;28;20208;-84
2022/08/09 01:38:42;;;;;;;6.63;3.60;;;16.10;99.90;;;;;;5035532;28;20181;-84
2022/08/09 01:41:14;;;;;;;8.20;4.00;;;16.20;99.90;;;;;;5036669;28;20178;-84
2022/08/09 01:43:45;;;;;;;7.33;3.83;;;16.10;99.90;;;;;;5035868;28;20174;-84
2022/08/09 01:46:13;;;;;;;4.33;3.90;;;16.10;99.90;;;;;;5035381;28;20230;-85
2022/08/09 01:48:41;;;;;;;5.30;3.80;;;16.00;99.90;;;;;;5035672;28;20553;-84
2022/08/09 01:51:08;;;;;;;6.13;3.87;;;15.90;99.90;;;;;;5036296;28;20201;-84
2022/08/09 01:53:35;;;;;;;6.63;4.00;;;15.90;99.90;;;;;;5035140;28;20240;-84
2022/08/09 01:56:03;;;;;;;8.27;4.30;;;16.00;99.90;;;;;;5035562;28;20209;-84
2022/08/09 01:58:31;;;;;;;7.30;4.10;;;16.00;99.90;;;;;;5035416;28;20191;-84
2022/08/09 02:00:59;;;;;;;5.63;3.87;;;15.90;99.90;;;;;;5036674;28;20224;-84
2022/08/09 02:03:28;;;;;;;8.10;4.20;;;16.10;99.90;;;;;;5034987;28;20178;-84
2022/08/09 02:05:55;;;;;;;4.90;4.00;;;16.00;99.90;;;;;;5035056;28;20279;-84
2022/08/09 02:08:23;;;;;;;6.83;4.30;;;16.10;99.90;;;;;;5034810;28;20186;-84
2022/08/09 02:10:53;;;;;;;4.23;3.80;;;16.00;99.90;;;;;;5036201;28;20172;-84
2022/08/09 02:13:21;;;;;;;11.00;5.10;;;15.90;99.90;;;;;;5034005;28;20221;-85
2022/08/09 02:15:50;;;;;;;8.80;4.60;;;15.80;99.90;;;;;;5033527;28;20217;-84
2022/08/09 02:18:19;;;;;;;9.03;5.37;;;15.90;99.90;;;;;;5034617;28;20178;-84
2022/08/09 02:21:01;;;;;;;9.17;5.27;;;15.50;99.90;;;;;;5036438;28;20205;-84
2022/08/09 02:23:34;;;;;;;9.20;4.87;;;15.70;99.90;;;;;;5034503;28;20243;-84
2022/08/09 02:26:01;;;;;;;8.87;5.30;;;15.50;99.90;;;;;;5035680;28;20190;-84
2022/08/09 02:28:33;;;;;;;6.23;5.00;;;15.80;99.90;;;;;;5034229;28;20174;-84
2022/08/09 02:31:05;;;;;;;9.07;5.40;;;15.60;99.90;;;;;;5035556;28;20178;-85
2022/08/09 02:33:36;;;;;;;9.83;5.63;;;15.70;99.90;;;;;;5034248;28;20174;-84
2022/08/09 02:36:04;;;;;;;8.90;5.10;;;15.80;99.90;;;;;;5034363;28;20204;-84
2022/08/09 02:38:34;;;;;;;6.40;4.97;;;15.70;99.90;;;;;;5035386;28;20631;-85
2022/08/09 02:41:15;;;;;;;10.93;5.97;;;15.70;99.90;;;;;;5036175;28;20165;-84
2022/08/09 02:43:43;;;;;;;8.03;5.27;;;15.60;99.90;;;;;;5035152;28;20261;-84
2022/08/09 02:46:12;;;;;;;12.43;5.70;;;15.40;99.90;;;;;;5035593;28;20201;-85
2022/08/09 02:48:39;;;;;;;13.30;5.40;;;15.40;99.90;;;;;;5035448;28;20247;-84
2022/08/09 02:51:10;;;;;;;10.30;6.13;;;15.50;99.90;;;;;;5035376;28;20175;-84
2022/08/09 02:53:45;;;;;;;10.27;6.30;;;15.50;99.90;;;;;;5035107;28;20170;-85
2022/08/09 02:56:13;;;;;;;9.50;5.10;;;15.40;99.90;;;;;;5034296;28;20198;-86
2022/08/09 02:58:40;;;;;;;11.10;5.50;;;15.50;99.90;;;;;;5034187;28;20265;-86
2022/08/09 03:01:07;;;;;;;10.37;5.43;;;15.30;99.90;;;;;;5034835;28;20178;-86
2022/08/09 03:03:34;;;;;;;12.80;5.60;;;15.40;99.90;;;;;;5034207;28;20174;-87
2022/08/09 03:06:02;;;;;;;8.60;6.23;;;15.40;99.90;;;;;;5033765;28;20205;-86
2022/08/09 03:08:29;;;;;;;8.50;5.50;;;15.40;99.90;;;;;;5033183;28;20193;-87
2022/08/09 03:10:56;;;;;;;11.27;5.53;;;15.40;99.90;;;;;;5035685;28;20174;-86
2022/08/09 03:13:24;;;;;;;8.23;5.47;;;15.30;99.90;;;;;;5034696;28;20198;-86
2022/08/09 03:15:50;;;;;;;10.60;5.57;;;15.30;99.90;;;;;;5033696;28;20547;-86
2022/08/09 03:18:17;;;;;;;8.97;5.63;;;15.30;99.90;;;;;;5033929;28;20216;-87
2022/08/09 03:20:43;;;;;;;8.63;5.33;;;15.20;99.90;;;;;;5034395;28;20239;-87
2022/08/09 03:23:11;;;;;;;9.37;6.10;;;15.10;99.90;;;;;;5032837;28;20273;-87
2022/08/09 03:25:38;;;;;;;8.13;5.63;;;15.20;99.90;;;;;;5033497;28;20198;-86
2022/08/09 03:28:05;;;;;;;7.80;5.50;;;15.20;99.90;;;;;;5033029;28;20795;-87
2022/08/09 03:30:31;;;;;;;9.03;6.00;;;15.10;99.90;;;;;;5033512;28;20178;-87
2022/08/09 03:32:59;;;;;;;10.63;6.10;;;15.20;99.90;;;;;;5033207;28;20169;-86
2022/08/09 03:35:25;;;;;;;10.63;6.37;;;15.20;99.90;;;;;;5032329;28;20252;-87
2022/08/09 03:37:51;;;;;;;9.70;6.00;;;15.20;99.90;;;;;;5032749;28;20572;-86
2022/08/09 03:40:17;;;;;;;10.27;6.40;;;15.20;99.90;;;;;;5033049;28;20196;-86
2022/08/09 03:42:43;;;;;;;13.30;6.07;;;15.20;99.90;;;;;;5034424;28;20287;-86
2022/08/09 03:45:09;;;;;;;14.57;6.40;;;15.30;99.90;;;;;;5033558;28;20281;-87
2022/08/09 03:47:35;;;;;;;8.73;5.97;;;15.30;99.90;;;;;;5033230;28;20535;-86
2022/08/09 03:50:04;;;;;;;10.93;5.83;;;15.10;99.90;;;;;;5034375;28;20176;-87
2022/08/09 03:52:30;;;;;;;9.70;6.70;;;15.10;99.90;;;;;;5034831;28;20170;-87
2022/08/09 03:55:01;;;;;;;10.00;6.10;;;14.90;99.90;;;;;;5033159;28;20201;-87
2022/08/09 03:57:28;;;;;;;7.80;6.20;;;15.10;99.90;;;;;;5033468;28;20199;-87
2022/08/09 03:59:53;;;;;;;10.30;6.50;;;15.20;99.90;;;;;;5032222;28;20327;-87
2022/08/09 04:02:20;;;;;;;14.33;6.80;;;15.10;99.90;;;;;;5033063;28;20202;-87
2022/08/09 04:04:46;;;;;;;14.87;6.67;;;15.10;99.90;;;;;;5032091;28;20211;-87
2022/08/09 04:07:12;;;;;;;10.50;6.37;;;15.00;99.90;;;;;;5032340;28;20268;-87
2022/08/09 04:09:37;;;;;;;12.97;6.93;;;15.00;99.90;;;;;;5031950;28;20335;-87
2022/08/09 04:12:38;;;;;;;14.77;6.40;;;15.10;99.90;;;;;;5032846;28;20717;-87
2022/08/09 04:15:05;;;;;;;11.60;6.37;;;14.90;99.90;;;;;;5021738;28;20693;-87
2022/08/09 04:17:30;;;;;;;12.63;6.70;;;15.00;99.90;;;;;;5031717;28;20190;-87
2022/08/09 04:19:56;;;;;;;12.83;7.40;;;15.00;99.90;;;;;;5032085;28;20177;-87
2022/08/09 04:22:23;;;;;;;13.97;6.63;;;14.90;99.90;;;;;;5032877;28;20256;-87
2022/08/09 04:24:49;;;;;;;13.30;7.47;;;14.90;99.90;;;;;;5032057;28;20220;-87
2022/08/09 04:27:14;;;;;;;12.27;7.13;;;15.10;99.90;;;;;;5033690;28;20174;-87
2022/08/09 04:29:40;;;;;;;10.07;6.73;;;15.10;99.90;;;;;;5032256;28;20596;-88
2022/08/09 04:32:06;;;;;;;11.77;7.30;;;15.00;99.90;;;;;;5032186;28;20181;-87
2022/08/09 04:34:32;;;;;;;13.43;7.33;;;15.10;99.90;;;;;;5031998;28;20289;-87
2022/08/09 04:36:59;;;;;;;10.17;6.40;;;15.10;99.90;;;;;;5031808;28;20340;-87
2022/08/09 04:39:25;;;;;;;12.80;7.03;;;15.10;99.90;;;;;;5031459;28;20166;-87
2022/08/09 04:41:51;;;;;;;11.63;6.97;;;14.90;99.90;;;;;;5031547;28;20276;-87
2022/08/09 04:44:16;;;;;;;11.43;6.83;;;15.00;99.90;;;;;;5031446;28;20174;-87
2022/08/09 04:46:42;;;;;;;10.67;7.00;;;15.00;99.90;;;;;;5031727;28;20183;-87
2022/08/09 04:49:07;;;;;;;14.57;7.43;;;15.00;99.90;;;;;;5031281;28;20185;-88
2022/08/09 04:51:34;;;;;;;11.50;7.00;;;15.10;99.90;;;;;;5031413;28;20176;-88
2022/08/09 04:53:59;;;;;;;16.10;7.20;;;15.00;99.90;;;;;;5031891;28;20170;-87
2022/08/09 04:56:25;;;;;;;12.13;7.47;;;15.10;99.90;;;;;;5031339;28;20197;-88
2022/08/09 04:58:50;;;;;;;13.13;7.23;;;15.00;99.90;;;;;;5031253;28;20170;-88
2022/08/09 05:01:16;;;;;;;10.23;7.20;;;15.10;99.90;;;;;;5031561;28;20646;-88
2022/08/09 05:03:42;;;;;;;13.33;7.23;;;15.30;99.90;;;;;;5031062;28;20352;-87
2022/08/09 05:06:11;;;;;;;13.53;6.80;;;15.40;99.90;;;;;;5031938;28;20198;-87
2022/08/09 05:08:37;;;;;;;8.47;6.00;;;15.50;99.90;;;;;;5031057;28;20213;-88
2022/08/09 05:11:04;;;;;;;10.93;5.30;;;15.50;99.90;;;;;;5031399;28;20639;-87
2022/08/09 05:13:30;;;;;;;14.17;5.50;;;15.60;99.90;;;;;;5031408;28;20180;-88
2022/08/09 05:15:55;;;;;;;11.20;6.20;;;15.60;99.90;;;;;;5031270;28;20288;-87
2022/08/09 05:18:21;;;;;;;12.07;6.10;;;15.60;99.90;;;;;;5031686;28;20183;-88
2022/08/09 05:20:47;;;;;;;11.00;6.30;;;15.60;99.90;;;;;;5031683;28;20213;-87
2022/08/09 05:23:12;;;;;;;11.20;6.10;;;15.60;99.90;;;;;;5033189;28;20158;-87
2022/08/09 05:25:38;;;;;;;9.73;6.20;;;15.70;99.90;;;;;;5033794;28;20282;-88
2022/08/09 05:28:04;;;;;;;12.57;6.37;;;15.80;99.90;;;;;;5032373;28;20167;-87
2022/08/09 05:30:30;;;;;;;11.03;6.33;;;15.80;99.90;;;;;;5032187;28;20178;-88
2022/08/09 05:32:56;;;;;;;14.43;6.67;;;15.80;99.90;;;;;;5031059;28;20589;-87
2022/08/09 05:35:21;;;;;;;9.23;6.57;;;15.90;99.90;;;;;;5031082;28;20658;-87
2022/08/09 05:37:50;;;;;;;11.47;6.17;;;16.00;99.90;;;;;;5031280;28;20209;-87
2022/08/09 05:40:16;;;;;;;9.70;6.40;;;16.00;99.90;;;;;;5031140;28;20175;-88
2022/08/09 05:42:41;;;;;;;12.53;6.83;;;16.10;99.90;;;;;;5030807;28;20242;-88
2022/08/09 05:45:07;;;;;;;8.97;6.27;;;16.20;99.90;;;;;;5031143;28;20399;-87
2022/08/09 05:47:33;;;;;;;10.97;6.13;;;16.40;99.90;;;;;;5030984;28;20182;-87
2022/08/09 05:49:59;;;;;;;11.57;5.80;;;16.50;99.90;;;;;;5031268;28;20268;-87
2022/08/09 05:52:24;;;;;;;14.60;6.10;;;16.50;99.90;;;;;;5030992;28;20180;-88
2022/08/09 05:54:50;;;;;;;15.83;6.07;;;16.60;99.90;;;;;;5030820;28;20205;-87
2022/08/09 05:57:16;;;;;;;12.80;5.67;;;16.80;99.90;;;;;;5030351;28;20676;-88
2022/08/09 05:59:42;;;;;;;10.40;5.93;;;17.00;99.90;;;;;;5030881;28;20185;-88
2022/08/09 06:02:08;;;;;;;17.33;7.33;;;17.20;99.90;;;;;;5030493;28;20678;-89
2022/08/09 06:04:35;;;;;;;10.23;5.63;;;17.30;99.90;;;;;;5030799;28;20666;-87
2022/08/09 06:07:02;;;;;;;9.23;5.53;;;17.60;99.90;;;;;;5031784;28;20531;-88
2022/08/09 06:09:28;;;;;;;7.23;4.87;;;17.90;99.90;;;;;;5031736;28;20201;-88
2022/08/09 06:11:53;;;;;;;7.53;4.10;;;18.10;99.90;;;;;;5034641;28;20174;-88
2022/08/09 06:14:19;;;;;;;5.57;4.17;;;18.30;99.90;;;;;;5033792;28;20592;-89
2022/08/09 06:16:45;;;;;;;4.90;3.55;;;18.80;99.90;;;;;;5033952;28;20197;-89
2022/08/09 06:19:13;;;;;;;7.90;3.80;;;19.10;99.90;;;;;;5034228;28;20205;-85
2022/08/09 06:21:39;;;;;;;5.57;3.60;;;19.50;99.90;;;;;;5034200;28;20170;-83
2022/08/09 06:24:05;;;;;;;8.38;3.22;;;19.50;99.90;;;;;;5033805;28;20174;-82
2022/08/09 06:26:33;;;;;;;7.13;3.10;;;20.00;99.90;;;;;;5033964;28;20198;-81
2022/08/09 06:28:58;;;;;;;9.38;3.22;;;20.20;99.90;;;;;;5033679;28;20177;-81
2022/08/09 06:31:24;;;;;;;5.55;3.17;;;20.40;99.90;;;;;;5033718;28;20174;-81
2022/08/09 06:33:50;;;;;;;6.45;3.22;;;20.60;99.90;;;;;;5033645;28;20216;-82
2022/08/09 06:36:15;;;;;;;7.22;2.95;;;20.40;99.90;;;;;;5033809;28;20670;-81
2022/08/09 06:38:42;;;;;;;3.63;2.80;;;20.50;99.90;;;;;;5033577;28;20539;-82
2022/08/09 06:41:08;;;;;;;6.03;2.90;;;20.50;99.90;;;;;;5034060;28;20177;-81
2022/08/09 06:43:34;;;;;;;6.18;2.78;;;21.20;99.90;;;;;;5033808;28;20216;-81
2022/08/09 06:45:59;;;;;;;3.90;2.80;;;21.40;99.90;;;;;;5033602;28;20293;-81
2022/08/09 06:48:25;;;;;;;8.43;2.85;;;21.70;99.90;;;;;;5033234;28;20177;-80
2022/08/09 06:50:52;;;;;;;9.05;3.30;;;21.90;99.90;;;;;;5033104;28;20174;-80
2022/08/09 06:53:18;;;;;;;7.05;2.90;;;21.80;99.90;;;;;;5034011;28;20374;-81
2022/08/09 06:55:43;;;;;;;5.07;2.40;;;21.20;99.90;;;;;;5035440;28;20194;-80
2022/08/09 06:58:09;;;;;;;2.97;2.53;;;21.80;99.90;;;;;;5035857;28;20654;-80
2022/08/09 07:00:35;;;;;;;6.45;2.30;;;22.40;99.90;;;;;;5034265;28;20178;-80
2022/08/09 07:03:01;;;;;;;4.10;2.67;;;22.10;99.90;;;;;;5034749;28;20257;-81
2022/08/09 07:05:28;;;;;;;4.63;2.60;;;22.40;99.90;;;;;;5034883;28;20186;-80
2022/08/09 07:07:54;;;;;;;6.72;2.20;;;22.80;99.90;;;;;;5035108;28;20178;-82
2022/08/09 07:10:21;;;;;;;3.58;2.20;;;22.50;99.90;;;;;;5035692;28;20247;-81
2022/08/09 07:12:48;;;;;;;2.35;1.95;;;22.30;99.90;;;;;;5034703;28;20189;-80
2022/08/09 07:15:13;;;;;;;6.55;2.17;;;22.50;99.90;;;;;;5035334;28;20228;-81
2022/08/09 07:17:39;;;;;;;6.53;2.35;;;23.10;99.90;;;;;;5034231;28;20245;-81
2022/08/09 07:20:05;;;;;;;4.03;2.75;;;22.90;99.90;;;;;;5035863;28;20181;-82
2022/08/09 07:22:31;;;;;;;4.60;2.58;;;22.70;99.90;;;;;;5038676;28;20194;-81
2022/08/09 07:24:57;;;;;;;3.38;2.30;;;22.90;99.90;;;;;;5037405;28;20189;-81
2022/08/09 07:27:24;;;;;;;7.97;2.60;;;22.90;99.90;;;;;;5036631;28;20220;-82
2022/08/09 07:29:50;;;;;;;5.50;2.22;;;23.70;99.90;;;;;;5036211;28;20181;-78
2022/08/09 07:32:15;;;;;;;3.65;2.05;;;24.30;99.90;;;;;;5034631;28;20753;-79
2022/08/09 07:34:41;;;;;;;3.83;2.13;;;24.40;99.90;;;;;;5034093;28;20293;-78
2022/08/09 07:37:07;;;;;;;4.90;2.55;;;24.30;99.90;;;;;;5033529;28;20309;-80
2022/08/09 07:39:32;;;;;;;6.00;2.05;;;24.50;99.90;;;;;;5035116;28;20746;-81
2022/08/09 07:41:58;;;;;;;4.47;2.50;;;24.30;99.90;;;;;;5035527;28;20184;-80
2022/08/09 07:44:24;;;;;;;3.28;2.20;;;24.20;99.90;;;;;;5034921;28;20688;-80
2022/08/09 07:46:49;;;;;;;6.95;2.45;;;24.60;99.90;;;;;;5036870;28;20175;-80
2022/08/09 07:49:15;;;;;;;3.03;1.85;;;24.60;99.90;;;;;;5034505;28;20232;-80
2022/08/09 07:51:41;;;;;;;3.80;1.80;;;25.00;99.90;;;;;;5032954;28;20712;-80
2022/08/09 07:54:07;;;;;;;7.03;1.80;;;25.10;99.90;;;;;;5033619;28;20687;-80
2022/08/09 07:56:33;;;;;;;2.95;1.98;;;25.60;99.90;;;;;;5034787;28;20248;-83
2022/08/09 07:58:58;;;;;;;5.88;1.95;;;25.60;99.90;;;;;;5033366;28;20197;-82
2022/08/09 08:01:24;;;;;;;4.38;1.98;;;26.00;99.30;;;;;;5032112;28;20181;-81
2022/08/09 08:03:50;;;;;;;8.60;2.00;;;25.30;98.80;;;;;;5045913;28;20223;-82
2022/08/09 08:06:15;;;;;;;2.95;2.10;;;26.20;98.90;;;;;;5035803;28;20194;-79
2022/08/09 08:08:41;;;;;;;5.10;1.75;;;26.20;98.10;;;;;;5033746;28;20186;-80
2022/08/09 08:11:07;;;;;;;4.65;1.98;;;26.20;98.00;;;;;;5037407;28;20223;-80
2022/08/09 08:13:32;;;;;;;4.03;1.67;;;25.80;96.80;;;;;;5036424;28;20177;-81
2022/08/09 08:15:58;;;;;;;5.07;1.80;;;26.10;96.30;;;;;;5035647;28;20202;-80
2022/08/09 08:18:23;;;;;;;6.88;2.20;;;25.40;96.90;;;;;;5036075;28;20203;-79
2022/08/09 08:20:49;;;;;;;3.63;1.88;;;25.70;97.10;;;;;;5053860;28;20173;-79
2022/08/09 08:23:16;;;;;;;3.28;1.60;;;25.40;95.70;;;;;;5054613;28;20532;-81
2022/08/09 08:25:43;;;;;;;8.73;2.00;;;25.80;96.40;;;;;;5054481;28;20189;-82
2022/08/09 08:28:08;;;;;;;5.60;1.70;;;26.50;96.50;;;;;;5052469;28;20261;-82
2022/08/09 08:30:35;;;;;;;4.50;1.67;;;26.80;95.60;;;;;;5052595;28;20200;-83
2022/08/09 08:33:00;;;;;;;6.85;1.70;;;26.90;95.00;;;;;;5050881;28;20196;-85
2022/08/09 08:35:26;;;;;;;21.27;2.13;;;26.50;95.10;;;;;;5051564;28;20561;-83
2022/08/09 08:37:52;;;;;;;3.72;1.80;;;26.50;95.00;;;;;;5033386;28;20201;-84
2022/08/09 08:40:17;;;;;;;35.13;4.32;;;26.60;93.70;;;;;;5031977;28;20193;-83
2022/08/09 08:42:43;;;;;;;9.38;2.08;;;26.50;95.40;;;;;;5031334;28;20271;-88
2022/08/09 08:45:10;;;;;;;7.22;2.17;;;26.50;94.40;;;;;;5031257;28;20194;-84
2022/08/09 08:47:39;;;;;;;4.70;1.73;;;26.70;93.90;;;;;;5032358;28;20201;-84
2022/08/09 08:50:05;;;;;;;8.75;2.80;;;27.10;93.90;;;;;;5032248;28;20269;-82
2022/08/09 08:52:32;;;;;;;5.68;2.00;;;27.30;93.50;;;;;;5035134;28;20174;-83
2022/08/09 08:54:59;;;;;;;5.30;1.70;;;26.60;93.70;;;;;;5032067;28;20197;-86
2022/08/09 08:57:26;;;;;;;5.35;1.88;;;27.00;93.60;;;;;;5031639;28;20194;-87
2022/08/09 08:59:53;;;;;;;3.65;1.90;;;27.00;93.00;;;;;;5035051;28;20177;-86
2022/08/09 09:02:22;;;;;;;5.93;1.95;;;27.80;93.00;;;;;;5031487;28;20597;-85
2022/08/09 09:04:51;;;;;;;6.57;2.20;;;27.70;91.70;;;;;;5031994;28;20186;-87
2022/08/09 09:07:17;;;;;;;7.47;1.98;;;27.30;92.00;;;;;;5031640;28;20177;-86
2022/08/09 09:09:47;;;;;;;3.80;1.85;;;27.70;91.30;;;;;;5034163;28;20659;-85
2022/08/09 09:12:18;;;;;;;5.97;2.08;;;27.40;92.40;;;;;;5032113;28;20178;-86
2022/08/09 09:14:45;;;;;;;5.65;2.10;;;27.50;91.10;;;;;;5032567;28;20225;-86
2022/08/09 09:17:11;;;;;;;4.70;1.60;;;27.60;91.30;;;;;;5034638;28;20197;-85
2022/08/09 09:19:37;;;;;;;3.30;1.83;;;27.40;92.20;;;;;;5031558;28;20173;-85
2022/08/09 09:22:04;;;;;;;5.15;1.95;;;26.50;91.20;;;;;;5032158;28;20541;-85
2022/08/09 09:24:36;;;;;;;2.75;2.05;;;27.20;91.20;;;;;;5034532;28;20200;-87
2022/08/09 09:27:03;;;;;;;2.35;2.00;;;27.20;90.90;;;;;;5032671;28;20182;-86
2022/08/09 09:29:33;;;;;;;2.55;1.80;;;27.60;91.40;;;;;;5031574;28;20185;-86
2022/08/09 09:32:00;;;;;;;2.80;2.03;;;28.30;91.70;;;;;;5030822;28;20193;-85
2022/08/09 09:34:26;;;;;;;6.45;2.17;;;28.40;89.40;;;;;;5032373;28;20181;-86
2022/08/09 09:36:53;;;;;;;4.25;2.10;;;28.50;90.70;;;;;;5033357;28;20198;-84
2022/08/09 09:39:21;;;;;;;5.82;1.85;;;27.80;90.20;;;;;;5033175;28;20170;-86
2022/08/09 09:41:47;;;;;;;4.80;2.05;;;27.70;90.60;;;;;;5032425;28;20173;-86
2022/08/09 09:44:18;;;;;;;3.60;2.05;;;27.50;90.50;;;;;;5032952;28;20177;-86
2022/08/09 09:46:43;;;;;;;4.90;1.75;;;28.40;88.40;;;;;;5035741;28;20253;-87
2022/08/09 09:49:12;;;;;;;4.28;1.92;;;28.30;89.50;;;;;;5035102;28;20236;-86
2022/08/09 09:51:39;;;;;;;6.72;1.90;;;28.10;89.10;;;;;;5035335;28;20552;-86
2022/08/09 09:54:08;;;;;;;6.53;2.17;;;28.40;88.20;;;;;;5035399;28;20723;-86
2022/08/09 09:56:40;;;;;;;6.63;2.10;;;28.30;87.70;;;;;;5035355;28;20194;-84
2022/08/09 09:59:10;;;;;;;4.90;1.90;;;28.50;87.80;;;;;;5035222;28;20173;-85
2022/08/09 10:01:37;;;;;;;4.85;2.20;;;28.40;89.40;;;;;;5035662;28;20162;-83
2022/08/09 10:04:11;;;;;;;2.00;1.80;;;28.20;87.00;;;;;;5037961;28;20174;-81
2022/08/09 10:06:43;;;;;;;2.42;1.73;;;28.30;88.90;;;;;;5036373;28;20277;-85
2022/08/09 10:09:11;;;;;;;4.47;2.03;;;28.30;86.60;;;;;;5035005;28;20601;-83
2022/08/09 10:11:37;;;;;;;2.53;1.88;;;28.10;88.00;;;;;;5034882;28;20178;-84
2022/08/09 10:14:03;;;;;;;3.03;2.00;;;29.10;86.00;;;;;;5039959;28;20634;-80
2022/08/09 10:16:31;;;;;;;4.80;1.80;;;28.90;84.10;;;;;;5036537;28;20202;-85
2022/08/09 10:19:01;;;;;;;3.35;1.70;;;29.80;84.10;;;;;;5033322;28;20204;-86
2022/08/09 10:21:27;;;;;;;1.83;1.60;;;28.90;84.10;;;;;;5034323;28;20219;-84
2022/08/09 10:23:54;;;;;;;2.80;1.77;;;28.20;86.00;;;;;;5034487;28;20764;-85
2022/08/09 10:26:21;;;;;;;3.85;1.80;;;28.40;85.30;;;;;;5034866;28;20328;-85
2022/08/09 10:28:48;;;;;;;3.35;2.05;;;28.80;86.90;;;;;;5034109;28;20174;-89
2022/08/09 10:31:14;;;;;;;3.10;1.70;;;28.50;84.80;;;;;;5034956;28;20228;-85
2022/08/09 10:33:42;;;;;;;3.65;1.80;;;27.90;85.00;;;;;;5034531;28;20181;-85
2022/08/09 10:36:09;;;;;;;2.45;1.67;;;28.90;83.20;;;;;;5035013;28;20308;-84
2022/08/09 10:38:36;;;;;;;3.63;1.90;;;28.80;85.80;;;;;;5037178;28;20167;-83
2022/08/09 10:41:02;;;;;;;1.75;1.65;;;29.60;84.20;;;;;;5035519;28;20185;-84
2022/08/09 10:43:29;;;;;;;3.78;2.00;;;28.90;83.20;;;;;;5035792;28;20208;-82
2022/08/09 10:45:54;;;;;;;2.17;1.70;;;28.60;84.50;;;;;;5035948;28;20204;-83
2022/08/09 10:48:43;;;;;;;5.07;1.80;;;28.70;84.20;;;;;;5038977;28;20252;-84
2022/08/09 10:51:20;;;;;;;9.40;1.90;;;28.90;85.50;;;;;;5055101;28;20539;-84
2022/08/09 10:54:06;;;;;;;2.85;1.88;;;28.40;84.40;;;;;;5056120;28;20707;-83
2022/08/09 10:56:34;;;;;;;4.82;1.70;;;28.70;82.20;;;;;;5054593;28;20587;-83
2022/08/09 10:59:20;;;;;;;3.28;1.63;;;29.50;83.80;;;;;;5054897;28;20169;-84
2022/08/09 11:01:47;;;;;;;4.55;1.70;;;29.70;82.30;;;;;;5055620;28;20250;-83
2022/08/09 11:04:13;;;;;;;5.32;2.10;;;30.00;81.10;;;;;;5056174;28;20257;-84
2022/08/09 11:06:41;;;;;;;4.57;1.83;;;31.50;80.50;;;;;;5055436;28;20263;-84
2022/08/09 11:09:08;;;;;;;3.78;1.80;;;31.30;78.70;;;;;;5056864;28;20649;-83
2022/08/09 11:11:59;;;;;;;4.30;2.08;;;30.10;80.30;;;;;;5056910;28;20165;-85
2022/08/09 11:14:30;;;;;;;7.75;1.80;;;29.60;80.50;;;;;;5055291;28;20178;-83
2022/08/09 11:16:56;;;;;;;5.20;1.83;;;29.20;79.90;;;;;;5060311;28;20197;-83
2022/08/09 11:19:57;;;;;;;2.45;1.58;;;29.60;80.80;;;;;;5058498;28;20188;-85
2022/08/09 11:22:43;;;;;;;6.30;2.15;;;29.90;80.10;;;;;;5060797;28;20173;-83
2022/08/09 11:25:18;;;;;;;1.80;1.60;;;29.60;80.00;;;;;;5057576;28;20527;-80
2022/08/09 11:27:46;;;;;;;3.40;1.60;;;28.80;81.80;;;;;;5055513;28;20168;-81
2022/08/09 11:30:21;;;;;;;5.05;1.80;;;28.40;80.20;;;;;;5055190;28;20272;-82
2022/08/09 11:33:00;;;;;;;9.32;2.15;;;27.70;80.70;;;;;;5055792;28;20281;-81
2022/08/09 11:36:01;;;;;;;3.20;1.90;;;27.60;81.50;;;;;;5054810;28;20194;-83
2022/08/09 11:38:29;;;;;;;4.68;1.75;;;27.90;81.20;;;;;;5000798;28;20246;-84
2022/08/09 11:40:56;;;;;;;6.20;1.73;;;29.20;81.60;;;;;;5053971;28;20250;-84
2022/08/09 11:43:25;;;;;;;4.80;1.60;;;29.20;80.60;;;;;;5056178;28;20178;-85
2022/08/09 11:45:59;;;;;;;4.97;1.70;;;30.00;78.90;;;;;;5053045;28;20564;-84
2022/08/09 11:48:29;;;;;;;2.67;1.80;;;30.40;76.90;;;;;;5048524;28;20170;-83
2022/08/09 11:51:00;;;;;;;16.02;1.88;;;31.50;75.90;;;;;;5032091;28;20273;-84
2022/08/09 11:53:31;;;;;;;3.97;1.80;;;31.00;76.20;;;;;;5031940;28;20173;-84
2022/08/09 11:55:59;;;;;;;4.88;1.90;;;31.20;76.90;;;;;;5033117;28;20190;-84
2022/08/09 11:58:27;;;;;;;5.25;1.92;;;29.90;80.20;;;;;;5032775;28;20193;-84
2022/08/09 12:00:54;;;;;;;3.30;1.95;;;30.20;79.70;;;;;;5031534;28;20263;-84
2022/08/09 12:03:22;;;;;;;4.68;1.98;;;29.60;78.10;;;;;;5031888;28;20172;-83
2022/08/09 12:05:49;;;;;;;2.78;1.60;;;28.70;79.10;;;;;;5031950;28;20194;-84
2022/08/09 12:08:16;;;;;;;4.25;1.77;;;29.70;79.60;;;;;;5030367;28;20257;-84
2022/08/09 12:10:48;;;;;;;4.43;1.90;;;29.40;80.50;;;;;;5031100;28;20162;-83
2022/08/09 12:13:44;;;;;;;4.28;1.83;;;29.00;80.70;;;;;;5031225;28;20627;-83
2022/08/09 12:16:16;;;;;;;2.85;1.80;;;28.80;80.20;;;;;;5032953;28;20205;-84
2022/08/09 12:18:45;;;;;;;4.85;1.77;;;28.20;80.00;;;;;;5039470;28;20170;-83
2022/08/09 12:21:11;;;;;;;5.97;2.33;;;28.50;83.60;;;;;;5040204;28;20192;-84
2022/08/09 12:23:43;;;;;;;1.90;1.70;;;28.30;79.90;;;;;;5037397;28;20177;-84
2022/08/09 12:26:09;;;;;;;4.18;1.90;;;28.80;78.30;;;;;;5035366;28;20288;-82
2022/08/09 12:28:38;;;;;;;8.52;2.10;;;29.10;79.80;;;;;;5040666;28;20204;-83
2022/08/09 12:31:20;;;;;;;2.95;1.67;;;29.00;81.60;;;;;;5035045;28;20174;-85
2022/08/09 12:33:47;;;;;;;3.15;1.83;;;29.00;79.10;;;;;;5035060;28;20174;-84
2022/08/09 12:36:13;;;;;;;3.60;2.10;;;28.90;79.80;;;;;;5035209;28;20229;-84
2022/08/09 12:38:39;;;;;;;4.68;1.88;;;28.40;81.40;;;;;;5036452;28;20827;-84
2022/08/09 12:41:04;;;;;;;9.52;2.00;;;28.60;80.30;;;;;;5035292;28;20231;-87
2022/08/09 12:43:31;;;;;;;11.85;2.40;;;28.00;80.20;;;;;;5036469;28;20197;-87
2022/08/09 12:45:57;;;;;;;3.53;1.80;;;27.60;79.70;;;;;;5038975;28;20678;-86
2022/08/09 12:48:25;;;;;;;3.13;1.92;;;27.70;82.00;;;;;;5040253;28;20638;-85
2022/08/09 12:50:51;;;;;;;5.03;1.90;;;28.30;81.20;;;;;;5040657;28;20174;-83